sensor_id;sensor_type;location;lat;lon;timestamp;temperature;humidity
33109;HTU21D;19481;51.118;6.940;2022-12-29T00:02:36;10.56;71.54
33109;HTU21D;19481;51.118;6.940;2022-12-29T00:07:37;10.49;72.25
33109;HTU21D;19481;51.118;6.940;2022-12-29T00:12:40;10.44;72.90
33109;HTU21D;19481;51.118;6.940;2022-12-29T00:17:59;10.39;72.66
33109;HTU21D;19481;51.118;6.940;2022-12-29T00:23:01;10.40;72.41
33109;HTU21D;19481;51.118;6.940;2022-12-29T00:28:21;10.40;73.28
33109;HTU21D;19481;51.118;6.940;2022-12-29T00:33:40;10.46;72.35
33109;HTU21D;19481;51.118;6.940;2022-12-29T00:39:02;10.49;72.15
33109;HTU21D;19481;51.118;6.940;2022-12-29T00:44:23;10.52;72.21
33109;HTU21D;19481;51.118;6.940;2022-12-29T00:49:25;10.55;72.66
33109;HTU21D;19481;51.118;6.940;2022-12-29T00:54:34;10.63;72.78
33109;HTU21D;19481;51.118;6.940;2022-12-29T00:59:37;10.72;71.93
33109;HTU21D;19481;51.118;6.940;2022-12-29T01:04:39;10.77;72.06
33109;HTU21D;19481;51.118;6.940;2022-12-29T01:09:41;10.89;71.57
33109;HTU21D;19481;51.118;6.940;2022-12-29T01:15:01;10.94;71.45
33109;HTU21D;19481;51.118;6.940;2022-12-29T01:20:03;10.98;71.65
33109;HTU21D;19481;51.118;6.940;2022-12-29T01:25:06;11.13;71.38
33109;HTU21D;19481;51.118;6.940;2022-12-29T01:30:10;11.17;71.03
33109;HTU21D;19481;51.118;6.940;2022-12-29T01:35:11;11.19;71.58
33109;HTU21D;19481;51.118;6.940;2022-12-29T01:40:13;11.27;72.03
33109;HTU21D;19481;51.118;6.940;2022-12-29T01:45:17;11.58;69.67
33109;HTU21D;19481;51.118;6.940;2022-12-29T01:50:24;11.61;70.54
33109;HTU21D;19481;51.118;6.940;2022-12-29T01:55:29;11.75;69.40
33109;HTU21D;19481;51.118;6.940;2022-12-29T02:00:33;12.00;68.46
33109;HTU21D;19481;51.118;6.940;2022-12-29T02:05:38;12.05;68.45
33109;HTU21D;19481;51.118;6.940;2022-12-29T02:10:42;12.05;68.52
33109;HTU21D;19481;51.118;6.940;2022-12-29T02:15:55;12.13;67.49
33109;HTU21D;19481;51.118;6.940;2022-12-29T02:26:49;12.21;67.42
33109;HTU21D;19481;51.118;6.940;2022-12-29T02:31:59;12.27;67.07
33109;HTU21D;19481;51.118;6.940;2022-12-29T02:37:05;12.26;67.14
33109;HTU21D;19481;51.118;6.940;2022-12-29T02:42:13;12.29;65.04
33109;HTU21D;19481;51.118;6.940;2022-12-29T02:47:24;12.32;65.35
33109;HTU21D;19481;51.118;6.940;2022-12-29T02:52:32;12.55;63.77
33109;HTU21D;19481;51.118;6.940;2022-12-29T02:57:35;12.52;65.80
33109;HTU21D;19481;51.118;6.940;2022-12-29T03:03:00;12.49;63.66
33109;HTU21D;19481;51.118;6.940;2022-12-29T03:08:18;12.55;64.11
33109;HTU21D;19481;51.118;6.940;2022-12-29T03:13:26;12.51;64.86
33109;HTU21D;19481;51.118;6.940;2022-12-29T03:18:51;12.51;65.40
33109;HTU21D;19481;51.118;6.940;2022-12-29T03:23:56;12.48;64.98
33109;HTU21D;19481;51.118;6.940;2022-12-29T03:28:58;12.47;65.23
33109;HTU21D;19481;51.118;6.940;2022-12-29T03:34:02;12.45;65.24
33109;HTU21D;19481;51.118;6.940;2022-12-29T03:39:08;12.37;64.76
33109;HTU21D;19481;51.118;6.940;2022-12-29T03:44:12;12.34;65.67
33109;HTU21D;19481;51.118;6.940;2022-12-29T03:49:15;12.31;65.69
33109;HTU21D;19481;51.118;6.940;2022-12-29T03:54:17;12.29;65.84
33109;HTU21D;19481;51.118;6.940;2022-12-29T03:59:18;12.29;65.92
33109;HTU21D;19481;51.118;6.940;2022-12-29T04:04:21;12.34;65.69
33109;HTU21D;19481;51.118;6.940;2022-12-29T04:09:23;12.35;65.33
33109;HTU21D;19481;51.118;6.940;2022-12-29T04:14:25;12.41;65.58
33109;HTU21D;19481;51.118;6.940;2022-12-29T04:19:28;12.37;64.91
33109;HTU21D;19481;51.118;6.940;2022-12-29T04:24:29;12.34;65.72
33109;HTU21D;19481;51.118;6.940;2022-12-29T04:29:31;12.38;65.02
33109;HTU21D;19481;51.118;6.940;2022-12-29T04:34:34;12.34;65.62
33109;HTU21D;19481;51.118;6.940;2022-12-29T04:39:35;12.42;65.17
33109;HTU21D;19481;51.118;6.940;2022-12-29T04:44:37;12.42;65.14
33109;HTU21D;19481;51.118;6.940;2022-12-29T04:49:40;12.47;64.96
33109;HTU21D;19481;51.118;6.940;2022-12-29T04:54:41;12.45;65.26
33109;HTU21D;19481;51.118;6.940;2022-12-29T04:59:43;12.53;64.64
33109;HTU21D;19481;51.118;6.940;2022-12-29T05:04:46;12.55;64.65
33109;HTU21D;19481;51.118;6.940;2022-12-29T05:09:48;12.61;64.15
33109;HTU21D;19481;51.118;6.940;2022-12-29T05:14:49;12.65;64.29
33109;HTU21D;19481;51.118;6.940;2022-12-29T05:19:52;12.75;63.73
33109;HTU21D;19481;51.118;6.940;2022-12-29T05:24:54;12.82;61.62
33109;HTU21D;19481;51.118;6.940;2022-12-29T05:29:55;12.84;63.21
33109;HTU21D;19481;51.118;6.940;2022-12-29T05:34:58;12.95;61.67
33109;HTU21D;19481;51.118;6.940;2022-12-29T05:40:00;12.93;62.61
33109;HTU21D;19481;51.118;6.940;2022-12-29T05:45:02;12.88;62.92
33109;HTU21D;19481;51.118;6.940;2022-12-29T05:50:05;12.97;61.79
33109;HTU21D;19481;51.118;6.940;2022-12-29T05:55:07;12.96;61.15
33109;HTU21D;19481;51.118;6.940;2022-12-29T06:00:10;12.88;60.92
33109;HTU21D;19481;51.118;6.940;2022-12-29T06:05:13;12.81;62.26
33109;HTU21D;19481;51.118;6.940;2022-12-29T06:10:15;12.89;61.68
33109;HTU21D;19481;51.118;6.940;2022-12-29T06:15:17;12.80;62.15
33109;HTU21D;19481;51.118;6.940;2022-12-29T06:20:20;12.75;61.94
33109;HTU21D;19481;51.118;6.940;2022-12-29T06:25:21;12.71;62.06
33109;HTU21D;19481;51.118;6.940;2022-12-29T06:30:24;12.69;62.08
33109;HTU21D;19481;51.118;6.940;2022-12-29T06:35:27;12.58;62.31
33109;HTU21D;19481;51.118;6.940;2022-12-29T06:40:28;12.59;61.99
33109;HTU21D;19481;51.118;6.940;2022-12-29T06:45:30;12.55;60.84
33109;HTU21D;19481;51.118;6.940;2022-12-29T06:50:33;12.57;61.90
33109;HTU21D;19481;51.118;6.940;2022-12-29T06:55:35;12.52;62.08
33109;HTU21D;19481;51.118;6.940;2022-12-29T07:00:36;12.58;61.67
33109;HTU21D;19481;51.118;6.940;2022-12-29T07:05:39;12.52;61.99
33109;HTU21D;19481;51.118;6.940;2022-12-29T07:10:41;12.51;61.67
33109;HTU21D;19481;51.118;6.940;2022-12-29T07:15:43;12.51;62.00
33109;HTU21D;19481;51.118;6.940;2022-12-29T07:20:46;12.44;62.42
33109;HTU21D;19481;51.118;6.940;2022-12-29T07:25:48;12.50;61.98
33109;HTU21D;19481;51.118;6.940;2022-12-29T07:30:49;12.58;61.57
33109;HTU21D;19481;51.118;6.940;2022-12-29T07:35:52;12.59;60.73
33109;HTU21D;19481;51.118;6.940;2022-12-29T07:40:57;12.46;61.72
33109;HTU21D;19481;51.118;6.940;2022-12-29T07:45:59;12.45;61.67
33109;HTU21D;19481;51.118;6.940;2022-12-29T07:51:02;12.44;61.77
33109;HTU21D;19481;51.118;6.940;2022-12-29T07:56:04;12.47;61.61
33109;HTU21D;19481;51.118;6.940;2022-12-29T08:01:06;12.49;60.58
33109;HTU21D;19481;51.118;6.940;2022-12-29T08:06:10;12.42;60.65
33109;HTU21D;19481;51.118;6.940;2022-12-29T08:11:12;12.25;61.83
33109;HTU21D;19481;51.118;6.940;2022-12-29T08:16:13;12.22;61.43
33109;HTU21D;19481;51.118;6.940;2022-12-29T08:21:16;12.22;61.85
33109;HTU21D;19481;51.118;6.940;2022-12-29T08:26:18;12.17;62.04
33109;HTU21D;19481;51.118;6.940;2022-12-29T08:31:20;12.14;62.19
33109;HTU21D;19481;51.118;6.940;2022-12-29T08:36:22;12.11;61.83
33109;HTU21D;19481;51.118;6.940;2022-12-29T08:41:24;12.08;62.22
33109;HTU21D;19481;51.118;6.940;2022-12-29T08:46:26;12.16;61.70
33109;HTU21D;19481;51.118;6.940;2022-12-29T08:51:29;12.10;61.68
33109;HTU21D;19481;51.118;6.940;2022-12-29T08:56:30;12.14;61.25
33109;HTU21D;19481;51.118;6.940;2022-12-29T09:01:32;12.22;59.92
33109;HTU21D;19481;51.118;6.940;2022-12-29T09:06:37;12.22;60.86
33109;HTU21D;19481;51.118;6.940;2022-12-29T09:11:39;12.17;61.02
33109;HTU21D;19481;51.118;6.940;2022-12-29T09:16:41;12.10;59.73
33109;HTU21D;19481;51.118;6.940;2022-12-29T09:22:02;12.08;60.50
33109;HTU21D;19481;51.118;6.940;2022-12-29T09:27:04;12.19;59.53
33109;HTU21D;19481;51.118;6.940;2022-12-29T09:32:05;12.76;58.23
33109;HTU21D;19481;51.118;6.940;2022-12-29T09:37:08;12.71;58.93
33109;HTU21D;19481;51.118;6.940;2022-12-29T09:42:16;13.09;54.39
33109;HTU21D;19481;51.118;6.940;2022-12-29T09:47:20;13.04;57.78
33109;HTU21D;19481;51.118;6.940;2022-12-29T09:52:26;13.44;56.91
33109;HTU21D;19481;51.118;6.940;2022-12-29T09:57:45;14.67;49.22
33109;HTU21D;19481;51.118;6.940;2022-12-29T10:02:51;14.01;52.69
33109;HTU21D;19481;51.118;6.940;2022-12-29T10:08:03;14.08;55.04
33109;HTU21D;19481;51.118;6.940;2022-12-29T10:13:21;14.27;49.49
33109;HTU21D;19481;51.118;6.940;2022-12-29T10:23:53;13.37;56.21
33109;HTU21D;19481;51.118;6.940;2022-12-29T10:28:58;13.17;57.33
33109;HTU21D;19481;51.118;6.940;2022-12-29T10:34:10;13.30;55.94
33109;HTU21D;19481;51.118;6.940;2022-12-29T10:39:22;13.48;55.39
33109;HTU21D;19481;51.118;6.940;2022-12-29T11:21:02;14.27;51.08
33109;HTU21D;19481;51.118;6.940;2022-12-29T11:26:16;13.86;50.17
33109;HTU21D;19481;51.118;6.940;2022-12-29T11:31:21;13.65;55.36
33109;HTU21D;19481;51.118;6.940;2022-12-29T11:36:24;13.64;54.59
33109;HTU21D;19481;51.118;6.940;2022-12-29T11:41:28;13.37;54.43
33109;HTU21D;19481;51.118;6.940;2022-12-29T11:46:32;13.24;55.19
33109;HTU21D;19481;51.118;6.940;2022-12-29T11:51:45;13.12;54.55
33109;HTU21D;19481;51.118;6.940;2022-12-29T11:56:48;13.10;55.18
33109;HTU21D;19481;51.118;6.940;2022-12-29T12:01:51;12.97;55.34
33109;HTU21D;19481;51.118;6.940;2022-12-29T12:06:59;12.84;52.42
33109;HTU21D;19481;51.118;6.940;2022-12-29T12:12:02;12.85;55.32
33109;HTU21D;19481;51.118;6.940;2022-12-29T12:17:08;12.74;55.23
33109;HTU21D;19481;51.118;6.940;2022-12-29T12:22:19;12.60;55.02
33109;HTU21D;19481;51.118;6.940;2022-12-29T12:27:26;12.55;55.29
33109;HTU21D;19481;51.118;6.940;2022-12-29T12:32:36;12.59;55.07
33109;HTU21D;19481;51.118;6.940;2022-12-29T12:37:52;12.61;54.09
33109;HTU21D;19481;51.118;6.940;2022-12-29T12:43:13;12.56;54.53
33109;HTU21D;19481;51.118;6.940;2022-12-29T12:48:38;12.56;53.65
33109;HTU21D;19481;51.118;6.940;2022-12-29T12:54:01;12.52;53.84
33109;HTU21D;19481;51.118;6.940;2022-12-29T12:59:14;12.51;52.88
33109;HTU21D;19481;51.118;6.940;2022-12-29T13:04:43;12.47;52.26
33109;HTU21D;19481;51.118;6.940;2022-12-29T13:09:58;12.46;54.30
33109;HTU21D;19481;51.118;6.940;2022-12-29T13:15:15;12.43;54.36
33109;HTU21D;19481;51.118;6.940;2022-12-29T13:20:27;12.45;53.19
33109;HTU21D;19481;51.118;6.940;2022-12-29T13:25:37;12.49;53.46
33109;HTU21D;19481;51.118;6.940;2022-12-29T13:30:47;12.52;54.86
33109;HTU21D;19481;51.118;6.940;2022-12-29T13:35:58;12.57;51.76
33109;HTU21D;19481;51.118;6.940;2022-12-29T13:41:05;12.52;54.67
33109;HTU21D;19481;51.118;6.940;2022-12-29T13:46:11;12.46;53.68
33109;HTU21D;19481;51.118;6.940;2022-12-29T13:51:15;12.41;54.36
33109;HTU21D;19481;51.118;6.940;2022-12-29T13:56:21;12.34;52.48
33109;HTU21D;19481;51.118;6.940;2022-12-29T14:01:29;12.33;54.25
33109;HTU21D;19481;51.118;6.940;2022-12-29T14:06:33;12.21;55.00
33109;HTU21D;19481;51.118;6.940;2022-12-29T14:11:41;12.13;55.28
33109;HTU21D;19481;51.118;6.940;2022-12-29T14:16:44;12.12;55.12
33109;HTU21D;19481;51.118;6.940;2022-12-29T14:21:51;12.10;52.58
33109;HTU21D;19481;51.118;6.940;2022-12-29T14:26:55;12.04;52.13
33109;HTU21D;19481;51.118;6.940;2022-12-29T14:31:56;11.99;54.88
33109;HTU21D;19481;51.118;6.940;2022-12-29T14:37:00;11.93;54.50
33109;HTU21D;19481;51.118;6.940;2022-12-29T14:42:05;11.86;54.31
33109;HTU21D;19481;51.118;6.940;2022-12-29T14:47:08;11.84;54.92
33109;HTU21D;19481;51.118;6.940;2022-12-29T14:52:15;11.78;54.99
33109;HTU21D;19481;51.118;6.940;2022-12-29T14:57:33;11.78;53.05
33109;HTU21D;19481;51.118;6.940;2022-12-29T15:02:39;11.76;54.39
33109;HTU21D;19481;51.118;6.940;2022-12-29T15:07:41;11.72;55.08
33109;HTU21D;19481;51.118;6.940;2022-12-29T15:12:49;11.70;55.13
33109;HTU21D;19481;51.118;6.940;2022-12-29T15:17:53;11.69;55.03
33109;HTU21D;19481;51.118;6.940;2022-12-29T15:22:56;11.68;54.73
33109;HTU21D;19481;51.118;6.940;2022-12-29T15:28:02;11.62;54.18
